Sign-in with your pilot id or email, or register

ICAO: UAAA Name / Country: Almaty / Kazakhstan
Latitude: 43.3521 Longitude: 77.0405
Total Arrivals:
Strict Standards: Non-static method AirportData::getarrflights() should not be called statically, assuming $this from incompatible context in /var/www/customers/vh-7192/web/home/phpvms/core/templates/airport_info.tpl on line 18
1
Total Departures:
Strict Standards: Non-static method AirportData::getdeptflights() should not be called statically, assuming $this from incompatible context in /var/www/customers/vh-7192/web/home/phpvms/core/templates/airport_info.tpl on line 21
1
Latest Arrival: MTA003 (UTDD-UAAA) Tibor Berces Latest Departure: MTA5PM (UAAA-VIDP) Tibor Berces
Metar: UAAA 172300Z VRB01MPS 9999 NSC 08/05 Q1020 R88/65D NOSIG
More info

Charts for UAAA


NOTAM


Warning: file_get_contents(http://api.vateud.net/notams/UAAA.json): failed to open stream: Redirection limit reached, aborting in /var/www/customers/vh-7192/web/home/phpvms/core/common/NOTAMSData.class.php on line 18

Warning: Invalid argument supplied for foreach() in /var/www/customers/vh-7192/web/home/phpvms/core/common/NOTAMSData.class.php on line 22

Almaty